1858 NOT_NAMED (1858011S09058)


IBTrACS version v04r00. Visit IBTrACS website for data access.
Please direct all questions to the IBTrACS Q and A forum

Storm track - Intensity - Wind Radii - Intensity Data - Source Data - All data

Summary Information

Storm ID 1858011S09058
Start Jan 11 06Z
End Jan 21 06Z
ATCF IDs
Track status Best track data.

Storm track plot

Map of storm track

Intensity plots

No Intensity information for this storm


Radial wind information

No radial wind information for this storm


Position and Intensity Table

BASIN ISO_TIME_________ NATURE LAT LON
degrees north degrees east
SI 1858-01-11 06:00:00 NR -8.95 57.70
SI 09:00:00 NR -9.15 57.61
SI 12:00:00 NR -9.36 57.52
SI 15:00:00 NR -9.59 57.43
SI 18:00:00 NR -9.85 57.35
SI 21:00:00 NR -10.14 57.26
SI 1858-01-12 00:00:00 NR -10.47 57.16
SI 03:00:00 NR -10.83 57.06
SI 06:00:00 NR -11.20 56.95
SI 09:00:00 NR -11.60 56.82
SI 12:00:00 NR -12.02 56.69
SI 15:00:00 NR -12.43 56.55
SI 18:00:00 NR -12.82 56.41
SI 21:00:00 NR -13.18 56.28
SI 1858-01-13 00:00:00 NR -13.51 56.15
SI 03:00:00 NR -13.83 56.04
SI 06:00:00 NR -14.15 55.95
SI 09:00:00 NR -14.51 55.88
SI 12:00:00 NR -14.88 55.83
SI 15:00:00 NR -15.24 55.78
SI 18:00:00 NR -15.57 55.74
SI 21:00:00 NR -15.85 55.70
SI 1858-01-14 00:00:00 NR -16.11 55.67
SI 03:00:00 NR -16.33 55.63
SI 06:00:00 NR -16.55 55.60
SI 09:00:00 NR -16.75 55.56
SI 12:00:00 NR -16.94 55.53
SI 15:00:00 NR -17.13 55.49
SI 18:00:00 NR -17.31 55.46
SI 21:00:00 NR -17.50 55.44
SI 1858-01-15 00:00:00 NR -17.69 55.41
SI 03:00:00 NR -17.89 55.38
SI 06:00:00 NR -18.10 55.35
SI 09:00:00 NR -18.34 55.30
SI 12:00:00 NR -18.58 55.25
SI 15:00:00 NR -18.83 55.20
SI 18:00:00 NR -19.08 55.15
SI 21:00:00 NR -19.31 55.11
SI 1858-01-16 00:00:00 NR -19.55 55.07
SI 03:00:00 NR -19.77 55.04
SI 06:00:00 NR -20.00 55.00
SI 09:00:00 NR -20.22 54.96
SI 12:00:00 NR -20.44 54.92
SI 15:00:00 NR -20.66 54.88
SI 18:00:00 NR -20.86 54.84
SI 21:00:00 NR -21.04 54.82
SI 1858-01-17 00:00:00 NR -21.21 54.80
SI 03:00:00 NR -21.39 54.77
SI 06:00:00 NR -21.60 54.75
SI 09:00:00 NR -21.85 54.71
SI 12:00:00 NR -22.13 54.68
SI 15:00:00 NR -22.42 54.64
SI 18:00:00 NR -22.71 54.60
SI 21:00:00 NR -23.01 54.57
SI 1858-01-18 00:00:00 NR -23.31 54.55
SI 03:00:00 NR -23.59 54.53
SI 06:00:00 NR -23.85 54.50
SI 09:00:00 NR -24.05 54.46
SI 12:00:00 NR -24.23 54.42
SI 15:00:00 NR -24.40 54.38
SI 18:00:00 NR -24.57 54.35
SI 21:00:00 NR -24.75 54.32
SI 1858-01-19 00:00:00 NR -24.84 54.30
SI 03:00:00 NR -24.89 54.28
SI 06:00:00 NR -24.86 54.24
SI 09:00:00 NR -24.72 54.18
SI 12:00:00 NR -24.95 54.17
SI 15:00:00 NR -25.20 54.15
SI 18:00:00 NR -25.44 54.14
SI 21:00:00 NR -25.67 54.13
SI 1858-01-20 00:00:00 NR -25.90 54.12
SI 03:00:00 NR -26.11 54.11
SI 06:00:00 NR -26.30 54.10
SI 09:00:00 NR -26.46 54.09
SI 12:00:00 NR -26.60 54.08
SI 15:00:00 NR -26.71 54.07
SI 18:00:00 NR -26.81 54.05
SI 21:00:00 NR -26.90 54.04
SI 1858-01-21 00:00:00 NR -26.97 54.03
SI 03:00:00 NR -27.04 54.01
SI 06:00:00 NR -27.10 54.00

Source Information

Agency Information
USA
TOKYO
CMA
HKO
NEWDELHI
REUNION WMO-Best-Tracks.txt:Line=145:xxxx858022
BOM
NADI
WELLINGTON
DS824
TD9636 cons_worldwide_trop_cyclone_18710101-19891231-005:Line=196
TD9635
NEUMANN
MLC

All available IBTrACS Data

SEASON BASIN SUBBASIN ISO_TIME_________ NATURE LAT LON WMO AGENCY DIST2LAND LANDFALL IFLAG USA SSHS REUNION LAT REUNION LON REUNION TYPE REUNION TNUM TD9636 LAT TD9636 LON TD9636 STAGE STORM SPEED STORM DIR
Year degrees north degrees east km km 1 degrees north degrees east 1 degrees north degrees east kts degrees
1858 SI MM 1858-01-11 06:00:00 NR -8.95 57.70 reunion 967 947 _____O____O___ -1 -8.50 57.80 99 9.90 -9.40 57.60 7 4 203
1858 SI MM 09:00:00 NR -9.15 57.61 947 927 _____P____P___ -1 -8.53 57.78 99 -9.77 57.44 7 4 203
1858 SI MM 12:00:00 NR -9.36 57.52 922 902 _____P____P___ -1 -8.56 57.76 99 -10.15 57.29 7 5 202
1858 SI MM 15:00:00 NR -9.59 57.43 902 893 _____P____P___ -1 -8.62 57.73 99 -10.56 57.14 7 5 200
1858 SI MM 18:00:00 NR -9.85 57.35 883 869 _____P____O___ -1 -8.69 57.69 99 -11.00 57.00 7 6 198
1858 SI MM 21:00:00 NR -10.14 57.26 869 843 _____P____P___ -1 -8.80 57.64 99 -11.48 56.87 7 7 196
1858 SI MM 1858-01-12 00:00:00 NR -10.47 57.16 843 821 _____P____P___ -1 -8.95 57.58 99 -11.99 56.74 7 7 196
1858 SI MM 03:00:00 NR -10.83 57.06 821 798 _____P____P___ -1 -9.15 57.50 99 -12.51 56.62 7 8 196
1858 SI MM 06:00:00 NR -11.20 56.95 reunion 798 765 _____O____O___ -1 -9.40 57.40 99 9.90 -13.00 56.50 7 8 197
1858 SI MM 09:00:00 NR -11.60 56.82 765 743 _____P____P___ -1 -9.71 57.28 99 -13.49 56.37 7 9 198
1858 SI MM 12:00:00 NR -12.02 56.69 743 721 _____P____P___ -1 -10.08 57.14 99 -13.95 56.24 7 9 198
1858 SI MM 15:00:00 NR -12.43 56.55 711 691 _____P____P___ -1 -10.50 56.99 99 -14.36 56.11 7 9 198
1858 SI MM 18:00:00 NR -12.82 56.41 691 664 _____P____O___ -1 -10.95 56.82 99 -14.70 56.00 7 8 199
1858 SI MM 21:00:00 NR -13.18 56.28 664 643 _____P____P___ -1 -11.42 56.66 99 -14.94 55.90 7 7 200
1858 SI MM 1858-01-13 00:00:00 NR -13.51 56.15 643 612 _____P____P___ -1 -11.91 56.50 99 -15.11 55.81 7 7 199
1858 SI MM 03:00:00 NR -13.83 56.04 612 604 _____P____P___ -1 -12.41 56.34 99 -15.25 55.75 7 7 197
1858 SI MM 06:00:00 NR -14.15 55.95 reunion 604 585 _____O____O___ -1 -12.90 56.20 99 9.90 -15.40 55.70 7 7 193
1858 SI MM 09:00:00 NR -14.51 55.88 585 570 _____P____P___ -1 -13.38 56.08 99 -15.63 55.68 7 7 189
1858 SI MM 12:00:00 NR -14.88 55.83 570 568 _____P____P___ -1 -13.87 55.97 99 -15.88 55.68 7 7 188
1858 SI MM 15:00:00 NR -15.24 55.78 568 538 _____P____P___ -1 -14.36 55.87 99 -16.11 55.69 7 7 187
1858 SI MM 18:00:00 NR -15.57 55.74 538 517 _____P____O___ -1 -14.84 55.78 99 -16.30 55.70 7 6 187
1858 SI MM 21:00:00 NR -15.85 55.70 507 486 _____P____P___ -1 -15.30 55.70 99 -16.41 55.70 7 5 187
1858 SI MM 1858-01-14 00:00:00 NR -16.11 55.67 486 470 _____P____P___ -1 -15.74 55.63 99 -16.47 55.71 7 5 188
1858 SI MM 03:00:00 NR -16.33 55.63 470 449 _____P____P___ -1 -16.14 55.56 99 -16.53 55.71 7 5 189
1858 SI MM 06:00:00 NR -16.55 55.60 reunion 449 429 _____O____O___ -1 -16.50 55.50 99 9.90 -16.60 55.70 7 4 189
1858 SI MM 09:00:00 NR -16.75 55.56 420 415 _____P____P___ -1 -16.79 55.45 99 -16.72 55.68 7 4 190
1858 SI MM 12:00:00 NR -16.94 55.53 415 396 _____P____P___ -1 -17.03 55.40 99 -16.86 55.66 7 4 190
1858 SI MM 15:00:00 NR -17.13 55.49 396 377 _____P____P___ -1 -17.24 55.36 99 -17.02 55.63 7 4 189
1858 SI MM 18:00:00 NR -17.31 55.46 377 365 _____P____O___ -1 -17.43 55.33 99 -17.20 55.60 7 4 189
1858 SI MM 21:00:00 NR -17.50 55.44 365 347 _____P____P___ -1 -17.60 55.30 99 -17.40 55.58 7 4 188
1858 SI MM 1858-01-15 00:00:00 NR -17.69 55.41 347 330 _____P____P___ -1 -17.76 55.27 99 -17.62 55.56 7 4 188
1858 SI MM 03:00:00 NR -17.89 55.38 330 314 _____P____P___ -1 -17.92 55.23 99 -17.86 55.53 7 4 189
1858 SI MM 06:00:00 NR -18.10 55.35 reunion 314 302 _____O____O___ -1 -18.10 55.20 99 9.90 -18.10 55.50 7 5 190
1858 SI MM 09:00:00 NR -18.34 55.30 302 268 _____P____P___ -1 -18.33 55.15 99 -18.35 55.45 7 5 191
1858 SI MM 12:00:00 NR -18.58 55.25 268 246 _____P____P___ -1 -18.57 55.10 99 -18.60 55.40 7 5 192
1858 SI MM 15:00:00 NR -18.83 55.20 246 213 _____P____P___ -1 -18.81 55.05 99 -18.85 55.35 7 5 191
1858 SI MM 18:00:00 NR -19.08 55.15 213 191 _____P____O___ -1 -19.05 54.99 99 -19.10 55.30 7 5 190
1858 SI MM 21:00:00 NR -19.31 55.11 191 169 _____P____P___ -1 -19.29 54.94 99 -19.33 55.27 7 5 189
1858 SI MM 1858-01-16 00:00:00 NR -19.55 55.07 169 137 _____P____P___ -1 -19.53 54.89 99 -19.56 55.25 7 5 188
1858 SI MM 03:00:00 NR -19.77 55.04 137 116 _____P____P___ -1 -19.77 54.84 99 -19.78 55.23 7 5 189
1858 SI MM 06:00:00 NR -20.00 55.00 reunion 116 94 _____O____O___ -1 -20.00 54.80 99 9.90 -20.00 55.20 7 5 189
1858 SI MM 09:00:00 NR -20.22 54.96 94 78 _____P____P___ -1 -20.21 54.77 99 -20.23 55.15 7 5 191
1858 SI MM 12:00:00 NR -20.44 54.92 78 61 _____P____P___ -1 -20.42 54.74 99 -20.47 55.10 7 4 191
1858 SI MM 15:00:00 NR -20.66 54.88 53 45 _____P____P___ -1 -20.62 54.71 99 -20.69 55.05 7 4 190
1858 SI MM 18:00:00 NR -20.86 54.84 47 42 _____P____O___ -1 -20.82 54.68 99 -20.90 55.00 7 4 189
1858 SI MM 21:00:00 NR -21.04 54.82 42 41 _____P____P___ -1 -21.02 54.66 99 -21.06 54.97 7 4 187
1858 SI MM 1858-01-17 00:00:00 NR -21.21 54.80 42 42 _____P____P___ -1 -21.21 54.64 99 -21.21 54.95 7 4 185
1858 SI MM 03:00:00 NR -21.39 54.77 52 52 _____P____P___ -1 -21.41 54.62 99 -21.38 54.93 7 4 186
1858 SI MM 06:00:00 NR -21.60 54.75 reunion 61 61 _____O____O___ -1 -21.60 54.60 99 9.90 -21.60 54.90 7 5 187
1858 SI MM 09:00:00 NR -21.85 54.71 91 91 _____P____P___ -1 -21.81 54.57 99 -21.90 54.85 7 5 188
1858 SI MM 12:00:00 NR -22.13 54.68 108 108 _____P____P___ -1 -22.01 54.55 99 -22.24 54.80 7 6 186
1858 SI MM 15:00:00 NR -22.42 54.64 142 142 _____P____P___ -1 -22.22 54.52 99 -22.61 54.75 7 6 187
1858 SI MM 18:00:00 NR -22.71 54.60 172 172 _____P____O___ -1 -22.42 54.50 99 -23.00 54.70 7 6 185
1858 SI MM 21:00:00 NR -23.01 54.57 203 203 _____P____P___ -1 -22.62 54.47 99 -23.40 54.67 7 6 184
1858 SI MM 1858-01-18 00:00:00 NR -23.31 54.55 238 238 _____P____P___ -1 -22.82 54.45 99 -23.79 54.65 7 6 184
1858 SI MM 03:00:00 NR -23.59 54.53 269 269 _____P____P___ -1 -23.01 54.42 99 -24.17 54.63 7 5 183
1858 SI MM 06:00:00 NR -23.85 54.50 reunion 301 301 _____O____O___ -1 -23.20 54.40 99 9.90 -24.50 54.60 7 5 186
1858 SI MM 09:00:00 NR -24.05 54.46 322 322 _____P____P___ -1 -23.37 54.37 99 -24.74 54.55 7 4 190
1858 SI MM 12:00:00 NR -24.23 54.42 336 336 _____P____P___ -1 -23.53 54.35 99 -24.94 54.49 7 4 193
1858 SI MM 15:00:00 NR -24.40 54.38 357 357 _____P____P___ -1 -23.68 54.32 99 -25.11 54.44 7 3 192
1858 SI MM 18:00:00 NR -24.57 54.35 381 381 _____P____O___ -1 -23.84 54.29 99 -25.30 54.40 7 4 189
1858 SI MM 21:00:00 NR -24.75 54.32 402 402 _____P____P___ -1 -23.99 54.27 99 -25.52 54.38 7 3 188
1858 SI MM 1858-01-19 00:00:00 NR -24.84 54.30 402 402 _____P____P___ -1 -24.15 54.24 99 -25.76 54.38 7 1 199
1858 SI MM 03:00:00 NR -24.89 54.28 413 413 _____P____P___ -1 -24.32 54.22 99 -26.03 54.39 7 1 251
1858 SI MM 06:00:00 NR -24.86 54.24 reunion 416 395 _____O____O___ -1 -24.50 54.20 99 9.90 -26.30 54.40 7 2 332
1858 SI MM 09:00:00 NR -24.72 54.18 395 395 _____P________ -1 -24.72 54.18 99 7 1 217
1858 SI MM 12:00:00 NR -24.95 54.17 427 427 _____P________ -1 -24.95 54.17 99 7 5 182
1858 SI MM 15:00:00 NR -25.20 54.15 448 448 _____P________ -1 -25.20 54.15 99 7 5 181
1858 SI MM 18:00:00 NR -25.44 54.14 472 472 _____P________ -1 -25.44 54.14 99 5 182
1858 SI MM 21:00:00 NR -25.67 54.13 504 504 _____P________ -1 -25.67 54.13 99 5 183
1858 SI MM 1858-01-20 00:00:00 NR -25.90 54.12 525 525 _____P________ -1 -25.90 54.12 99 4 0
1858 SI MM 03:00:00 NR -26.11 54.11 546 546 _____P________ -1 -26.11 54.11 99 4 0
1858 SI MM 06:00:00 NR -26.30 54.10 reunion 568 568 _____O________ -1 -26.30 54.10 99 9.90 4 0
1858 SI MM 09:00:00 NR -26.46 54.09 589 589 _____P________ -1 -26.46 54.09 99 3 183
1858 SI MM 12:00:00 NR -26.60 54.08 600 600 _____P________ -1 -26.60 54.08 99 3 184
1858 SI MM 15:00:00 NR -26.71 54.07 611 611 _____P________ -1 -26.71 54.07 99 2 0
1858 SI MM 18:00:00 NR -26.81 54.05 622 622 _____P________ -1 -26.81 54.05 99 2 0
1858 SI MM 21:00:00 NR -26.90 54.04 635 635 _____P________ -1 -26.90 54.04 99 2 184
1858 SI MM 1858-01-21 00:00:00 NR -26.97 54.03 646 646 _____P________ -1 -26.97 54.03 99 1 191
1858 SI MM 03:00:00 NR -27.04 54.01 646 646 _____P________ -1 -27.04 54.01 99 1 189
1858 SI MM 06:00:00 NR -27.10 54.00 reunion 657 _____O________ -1 -27.10 54.00 99 9.90 1 203